createdAt,value
2022-11-09T00:00:42.778Z,11.90
2022-11-09T00:03:09.532Z,11.80
2022-11-09T00:05:36.340Z,11.80
2022-11-09T00:08:06.568Z,11.80
2022-11-09T00:10:33.708Z,11.80
2022-11-09T00:13:00.832Z,11.80
2022-11-09T00:15:27.805Z,11.80
2022-11-09T00:17:54.694Z,11.80
2022-11-09T00:20:21.421Z,11.80
2022-11-09T00:22:49.025Z,11.80
2022-11-09T00:25:16.030Z,11.80
2022-11-09T00:27:42.747Z,11.90
2022-11-09T00:30:10.564Z,11.90
2022-11-09T00:32:37.264Z,11.90
2022-11-09T00:35:04.277Z,11.80
2022-11-09T00:37:31.155Z,11.80
2022-11-09T00:39:58.084Z,11.80
2022-11-09T00:42:24.824Z,11.80
2022-11-09T00:44:51.541Z,11.80
2022-11-09T00:47:20.613Z,11.70
2022-11-09T00:49:47.390Z,11.70
2022-11-09T00:52:14.153Z,11.70
2022-11-09T00:54:40.896Z,11.70
2022-11-09T00:57:07.639Z,11.70
2022-11-09T00:59:34.355Z,11.70
2022-11-09T01:02:01.055Z,11.70
2022-11-09T01:04:27.870Z,11.70
2022-11-09T01:06:54.615Z,11.70
2022-11-09T01:09:21.402Z,11.70
2022-11-09T01:11:48.083Z,11.70
2022-11-09T01:14:14.796Z,11.80
2022-11-09T01:16:41.567Z,11.70
2022-11-09T01:19:08.254Z,11.70
2022-11-09T01:21:35.005Z,11.70
2022-11-09T01:24:01.777Z,11.80
2022-11-09T01:26:28.836Z,11.70
2022-11-09T01:28:55.532Z,11.70
2022-11-09T01:31:22.439Z,11.70
2022-11-09T01:33:49.115Z,11.70
2022-11-09T01:36:18.608Z,11.70
2022-11-09T01:38:45.548Z,11.70
2022-11-09T01:41:20.290Z,11.70
2022-11-09T01:44:10.028Z,11.70
2022-11-09T01:46:44.561Z,11.70
2022-11-09T01:49:15.176Z,11.70
2022-11-09T01:51:43.933Z,11.60
2022-11-09T01:54:14.129Z,11.70
2022-11-09T01:56:40.911Z,11.70
2022-11-09T01:59:10.606Z,11.70
2022-11-09T02:01:37.471Z,11.70
2022-11-09T02:04:07.696Z,11.60
2022-11-09T02:06:34.452Z,11.60
2022-11-09T02:09:12.532Z,11.50
2022-11-09T02:11:39.275Z,11.50
2022-11-09T02:14:05.981Z,11.50
2022-11-09T02:16:32.780Z,11.40
2022-11-09T02:19:00.808Z,11.40
2022-11-09T02:21:28.505Z,11.40
2022-11-09T02:23:55.690Z,11.40
2022-11-09T02:26:26.684Z,11.40
2022-11-09T02:28:55.214Z,11.40
2022-11-09T02:31:22.791Z,11.40
2022-11-09T02:33:56.591Z,11.50
2022-11-09T02:36:23.734Z,11.40
2022-11-09T02:38:51.660Z,11.50
2022-11-09T02:41:18.338Z,11.50
2022-11-09T02:43:45.107Z,11.60
2022-11-09T02:46:11.884Z,11.50
2022-11-09T02:48:38.628Z,11.60
2022-11-09T02:51:05.614Z,11.60
2022-11-09T02:53:32.293Z,11.60
2022-11-09T02:55:58.982Z,11.60
2022-11-09T02:58:25.664Z,11.70
2022-11-09T03:00:52.478Z,11.70
2022-11-09T03:03:19.563Z,11.70
2022-11-09T03:05:48.877Z,11.70
2022-11-09T03:08:15.536Z,11.70
2022-11-09T03:10:42.224Z,11.80
2022-11-09T03:13:08.957Z,11.80
2022-11-09T03:15:35.611Z,11.80
2022-11-09T03:18:02.324Z,11.70
2022-11-09T03:20:29.165Z,11.70
2022-11-09T03:22:59.480Z,11.70
2022-11-09T03:25:26.990Z,11.80
2022-11-09T03:28:00.347Z,11.80
2022-11-09T03:30:27.131Z,11.80
2022-11-09T03:33:00.997Z,11.80
2022-11-09T03:35:27.884Z,11.70
2022-11-09T03:37:54.639Z,11.70
2022-11-09T03:40:21.573Z,11.60
2022-11-09T03:42:48.739Z,11.60
2022-11-09T03:45:16.269Z,11.60
2022-11-09T03:47:46.483Z,11.60
2022-11-09T03:50:14.035Z,11.50
2022-11-09T03:52:43.502Z,11.40
2022-11-09T03:55:10.342Z,11.40
2022-11-09T03:57:37.162Z,11.40
2022-11-09T04:00:05.946Z,11.40
2022-11-09T04:02:32.690Z,11.40
2022-11-09T04:04:59.455Z,11.40
2022-11-09T04:07:26.328Z,11.40
2022-11-09T04:09:53.119Z,11.30
2022-11-09T04:12:19.791Z,11.30
2022-11-09T04:14:46.473Z,11.30
2022-11-09T04:17:13.211Z,11.40
2022-11-09T04:19:39.901Z,11.40
2022-11-09T04:22:06.592Z,11.40
2022-11-09T04:24:33.297Z,11.40
2022-11-09T04:27:00.107Z,11.40
2022-11-09T04:29:26.781Z,11.40
2022-11-09T04:31:53.565Z,11.40
2022-11-09T04:34:20.399Z,11.40
2022-11-09T04:36:47.078Z,11.40
2022-11-09T04:39:13.880Z,11.30
2022-11-09T04:41:40.670Z,11.40
2022-11-09T04:44:07.430Z,11.40
2022-11-09T04:46:34.157Z,11.40
2022-11-09T04:49:00.964Z,11.40
2022-11-09T04:51:27.655Z,11.40
2022-11-09T04:53:54.333Z,11.40
2022-11-09T04:56:22.292Z,11.40
2022-11-09T04:58:49.378Z,11.40
2022-11-09T05:01:16.133Z,11.50
2022-11-09T05:03:43.072Z,11.50
2022-11-09T05:06:28.451Z,11.50
2022-11-09T05:08:55.421Z,11.50
2022-11-09T05:11:22.555Z,11.50
2022-11-09T05:13:49.407Z,11.50
2022-11-09T05:16:17.589Z,11.70
2022-11-09T05:18:44.735Z,11.50
2022-11-09T05:21:11.404Z,11.30
2022-11-09T05:23:56.555Z,11.10
2022-11-09T05:26:23.332Z,10.90
2022-11-09T05:28:50.075Z,10.80
2022-11-09T05:31:16.770Z,10.70
2022-11-09T05:33:43.605Z,10.70
2022-11-09T05:36:10.371Z,10.70
2022-11-09T05:38:37.037Z,10.60
2022-11-09T05:41:03.732Z,10.60
2022-11-09T05:43:30.445Z,10.70
2022-11-09T05:45:57.094Z,10.70
2022-11-09T05:48:23.801Z,10.70
2022-11-09T05:50:50.497Z,10.60
2022-11-09T05:53:17.325Z,10.60
2022-11-09T05:55:44.248Z,10.60
2022-11-09T05:58:11.117Z,10.50
2022-11-09T06:00:37.840Z,10.60
2022-11-09T06:03:04.858Z,10.50
2022-11-09T06:05:33.900Z,10.50
2022-11-09T06:08:08.411Z,10.50
2022-11-09T06:10:35.086Z,10.50
2022-11-09T06:13:01.876Z,10.40
2022-11-09T06:15:28.678Z,10.40
2022-11-09T06:17:56.218Z,10.40
2022-11-09T06:20:23.127Z,10.40
2022-11-09T06:23:03.056Z,10.40
2022-11-09T06:25:31.896Z,10.30
2022-11-09T06:27:58.827Z,10.30
2022-11-09T06:30:25.728Z,10.30
2022-11-09T06:32:57.413Z,10.30
2022-11-09T06:35:24.806Z,10.30
2022-11-09T06:37:58.568Z,10.20
2022-11-09T06:40:25.656Z,10.20
2022-11-09T06:42:52.472Z,10.20
2022-11-09T06:45:19.223Z,10.20
2022-11-09T06:47:45.946Z,10.20
2022-11-09T06:50:12.703Z,10.20
2022-11-09T06:52:39.499Z,10.20
2022-11-09T06:55:08.207Z,10.20
2022-11-09T06:57:34.932Z,10.10
2022-11-09T07:00:01.843Z,10.10
2022-11-09T07:02:28.752Z,10.10
2022-11-09T07:04:55.531Z,10.10
2022-11-09T07:07:27.439Z,10.10
2022-11-09T07:09:55.848Z,10.10
2022-11-09T07:12:22.757Z,10.10
2022-11-09T07:14:49.561Z,10.20
2022-11-09T07:17:16.575Z,10.10
2022-11-09T07:19:43.416Z,10.20
2022-11-09T07:22:10.260Z,10.20
2022-11-09T07:24:37.039Z,10.20
2022-11-09T07:27:05.201Z,10.20
2022-11-09T07:29:31.878Z,10.20
2022-11-09T07:31:58.638Z,10.20
2022-11-09T07:34:25.409Z,10.30
2022-11-09T07:36:54.917Z,10.20
2022-11-09T07:39:25.707Z,10.20
2022-11-09T07:41:53.957Z,10.30
2022-11-09T07:44:23.816Z,10.30
2022-11-09T07:46:50.723Z,10.30
2022-11-09T07:49:17.870Z,10.20
2022-11-09T07:51:44.781Z,10.30
2022-11-09T07:54:11.902Z,10.20
2022-11-09T07:56:38.787Z,10.20
2022-11-09T07:59:05.719Z,10.20
2022-11-09T08:01:36.422Z,10.20
2022-11-09T08:04:03.200Z,10.20
2022-11-09T08:06:30.066Z,10.20
2022-11-09T08:08:58.097Z,10.20
2022-11-09T08:11:25.059Z,10.20
2022-11-09T08:13:51.941Z,10.20
2022-11-09T08:16:18.837Z,10.30
2022-11-09T08:18:45.634Z,10.30
2022-11-09T08:21:13.216Z,10.30
2022-11-09T08:23:40.553Z,10.30
2022-11-09T08:26:07.382Z,10.40
2022-11-09T08:28:34.449Z,10.40
2022-11-09T08:31:03.616Z,10.50
2022-11-09T08:33:34.717Z,10.60
2022-11-09T08:36:01.644Z,10.60
2022-11-09T08:38:28.466Z,10.70
2022-11-09T08:40:59.054Z,10.70
2022-11-09T08:43:26.203Z,10.70
2022-11-09T08:45:53.499Z,10.80
2022-11-09T08:48:20.522Z,10.90
2022-11-09T08:50:52.439Z,11.00
2022-11-09T08:53:19.148Z,11.00
2022-11-09T08:55:49.364Z,10.90
2022-11-09T08:58:17.562Z,10.90
2022-11-09T09:00:44.624Z,10.90
2022-11-09T09:03:12.764Z,10.90
2022-11-09T09:05:41.900Z,10.90
2022-11-09T09:08:11.024Z,11.00
2022-11-09T09:10:37.825Z,11.00
2022-11-09T09:13:04.858Z,11.00
2022-11-09T09:15:31.693Z,11.10
2022-11-09T09:18:05.855Z,11.10
2022-11-09T09:20:33.135Z,11.10
2022-11-09T09:23:00.310Z,11.10
2022-11-09T09:25:27.225Z,11.20
2022-11-09T09:27:54.097Z,11.20
2022-11-09T09:30:20.889Z,11.20
2022-11-09T09:32:49.207Z,11.20
2022-11-09T09:35:16.102Z,11.20
2022-11-09T09:37:44.276Z,11.20
2022-11-09T09:40:24.191Z,11.30
2022-11-09T09:42:51.145Z,11.30
2022-11-09T09:45:23.519Z,11.40
2022-11-09T09:48:19.850Z,11.30
2022-11-09T09:50:54.256Z,11.40
2022-11-09T09:53:30.056Z,11.50
2022-11-09T09:56:05.168Z,11.50
2022-11-09T09:58:33.336Z,11.60
2022-11-09T10:01:22.755Z,11.70
2022-11-09T10:03:49.681Z,11.70
2022-11-09T10:06:35.332Z,11.80
2022-11-09T10:09:10.053Z,11.80
2022-11-09T10:11:55.289Z,11.90
2022-11-09T10:14:40.833Z,11.90
2022-11-09T10:17:32.230Z,12.00
2022-11-09T10:20:17.724Z,12.00
2022-11-09T10:23:01.041Z,12.00
2022-11-09T10:25:57.711Z,12.00
2022-11-09T10:28:20.618Z,12.00
2022-11-09T10:30:47.525Z,12.10
2022-11-09T10:33:21.465Z,12.10
2022-11-09T10:36:24.873Z,12.10
2022-11-09T10:38:52.139Z,12.10
2022-11-09T10:41:33.335Z,12.10
2022-11-09T10:44:00.391Z,12.20
2022-11-09T10:46:27.294Z,12.20
2022-11-09T10:48:55.910Z,12.20
2022-11-09T10:51:49.457Z,12.30
2022-11-09T10:54:24.791Z,12.30
2022-11-09T10:57:06.697Z,12.40
2022-11-09T10:59:47.478Z,12.40
2022-11-09T11:02:29.270Z,12.50
2022-11-09T11:05:08.140Z,12.60
2022-11-09T11:07:35.758Z,12.70
2022-11-09T11:10:17.700Z,12.70
2022-11-09T11:13:01.500Z,12.70
2022-11-09T11:15:31.449Z,12.70
2022-11-09T11:18:05.447Z,12.70
2022-11-09T11:20:34.220Z,12.80
2022-11-09T11:23:21.861Z,12.80
2022-11-09T11:25:57.895Z,12.90
2022-11-09T11:28:44.767Z,13.00
2022-11-09T11:31:15.744Z,13.00
2022-11-09T11:33:42.545Z,13.10
2022-11-09T11:36:50.659Z,13.10
2022-11-09T11:39:47.068Z,13.00
2022-11-09T11:42:25.132Z,13.00
2022-11-09T11:45:40.468Z,13.00
2022-11-09T11:48:37.967Z,13.00
2022-11-09T11:51:18.251Z,13.10
2022-11-09T11:54:18.594Z,13.10
2022-11-09T11:56:52.313Z,13.20
2022-11-09T12:00:07.084Z,13.20
2022-11-09T12:02:50.890Z,13.20
2022-11-09T12:05:36.073Z,13.20
2022-11-09T12:08:21.659Z,13.20
2022-11-09T12:10:57.596Z,13.20
2022-11-09T12:13:33.111Z,13.30
2022-11-09T12:16:23.367Z,13.30
2022-11-09T12:18:59.731Z,13.40
2022-11-09T12:21:34.986Z,13.40
2022-11-09T12:24:19.540Z,13.50
2022-11-09T12:27:32.041Z,13.60
2022-11-09T12:30:13.102Z,13.60
2022-11-09T12:33:00.554Z,13.60
2022-11-09T12:35:56.587Z,13.60
2022-11-09T12:38:30.674Z,13.60
2022-11-09T12:41:05.248Z,13.70
2022-11-09T12:43:42.304Z,13.70
2022-11-09T12:46:09.806Z,13.80
2022-11-09T12:48:36.653Z,13.80
2022-11-09T12:51:04.381Z,13.80
2022-11-09T12:53:36.513Z,13.90
2022-11-09T12:56:06.066Z,13.90
2022-11-09T12:58:34.144Z,13.90
2022-11-09T13:01:02.684Z,13.90
2022-11-09T13:03:40.468Z,13.90
2022-11-09T13:06:24.832Z,13.90
2022-11-09T13:09:16.667Z,13.90
2022-11-09T13:11:50.949Z,13.90
2022-11-09T13:14:26.075Z,13.90
2022-11-09T13:16:54.307Z,13.90
2022-11-09T13:19:36.568Z,13.90
2022-11-09T13:22:15.616Z,13.80
2022-11-09T13:24:51.374Z,13.80
2022-11-09T13:27:35.755Z,13.80
2022-11-09T13:30:02.628Z,13.80
2022-11-09T13:32:31.360Z,13.80
2022-11-09T13:34:59.145Z,13.80
2022-11-09T13:37:36.812Z,14.00
2022-11-09T13:40:31.693Z,14.10
2022-11-09T13:43:10.985Z,14.20
2022-11-09T13:45:46.867Z,14.30
2022-11-09T13:48:34.927Z,14.30
2022-11-09T13:51:09.282Z,14.30
2022-11-09T13:53:37.487Z,14.20
2022-11-09T13:56:39.870Z,14.20
2022-11-09T13:59:35.188Z,14.20
2022-11-09T14:02:02.142Z,14.20
2022-11-09T14:04:37.867Z,14.20
2022-11-09T14:07:24.172Z,14.10
2022-11-09T14:10:19.623Z,14.00
2022-11-09T14:13:02.368Z,14.00
2022-11-09T14:15:57.175Z,13.90
2022-11-09T14:18:38.283Z,14.00
2022-11-09T14:21:38.442Z,14.00
2022-11-09T14:24:32.638Z,14.00
2022-11-09T14:27:20.565Z,14.10
2022-11-09T14:29:57.829Z,14.10
2022-11-09T14:32:30.347Z,14.10
2022-11-09T14:35:20.266Z,14.00
2022-11-09T14:37:48.363Z,13.90
2022-11-09T14:40:35.435Z,13.90
2022-11-09T14:43:26.277Z,13.90
2022-11-09T14:46:03.171Z,14.00
2022-11-09T14:48:30.968Z,14.10
2022-11-09T14:51:02.459Z,14.20
2022-11-09T14:53:33.651Z,14.20
2022-11-09T14:56:05.400Z,14.30
2022-11-09T14:58:34.181Z,14.40
2022-11-09T15:01:08.981Z,14.40
2022-11-09T15:03:36.296Z,14.50
2022-11-09T15:06:21.945Z,14.60
2022-11-09T15:08:56.269Z,14.80
2022-11-09T15:11:35.384Z,15.00
2022-11-09T15:14:12.347Z,15.40
2022-11-09T15:16:39.048Z,15.70
2022-11-09T15:19:05.857Z,16.10
2022-11-09T15:21:37.970Z,16.30
2022-11-09T15:24:10.728Z,16.50
2022-11-09T15:26:43.224Z,16.60
2022-11-09T15:29:30.252Z,16.60
2022-11-09T15:32:17.213Z,16.40
2022-11-09T15:34:54.001Z,15.80
2022-11-09T15:37:50.879Z,15.30
2022-11-09T15:40:19.571Z,15.00
2022-11-09T15:42:46.621Z,14.70
2022-11-09T15:45:14.931Z,14.50
2022-11-09T15:47:41.908Z,14.40
2022-11-09T15:50:16.675Z,14.20
2022-11-09T15:52:44.397Z,14.10
2022-11-09T15:55:15.357Z,14.00
2022-11-09T15:57:42.506Z,13.90
2022-11-09T16:00:17.857Z,13.80
2022-11-09T16:02:47.489Z,13.70
2022-11-09T16:05:14.391Z,13.60
2022-11-09T16:07:52.354Z,13.60
2022-11-09T16:10:27.271Z,13.50
2022-11-09T16:12:55.992Z,13.50
2022-11-09T16:15:23.487Z,13.40
2022-11-09T16:17:51.222Z,13.30
2022-11-09T16:20:18.309Z,13.20
2022-11-09T16:22:45.126Z,13.20
2022-11-09T16:25:12.285Z,13.10
2022-11-09T16:27:54.506Z,13.10
2022-11-09T16:30:21.420Z,13.00
2022-11-09T16:32:50.094Z,13.00
2022-11-09T16:35:27.177Z,13.00
2022-11-09T16:37:55.317Z,12.90
2022-11-09T16:40:22.368Z,12.90
2022-11-09T16:42:49.178Z,12.80
2022-11-09T16:45:16.094Z,12.80
2022-11-09T16:47:45.482Z,12.80
2022-11-09T16:50:12.358Z,12.70
2022-11-09T16:55:30.063Z,12.70
2022-11-09T16:57:56.877Z,12.60
2022-11-09T17:00:27.627Z,12.60
2022-11-09T17:03:04.432Z,12.60
2022-11-09T17:05:31.775Z,12.60
2022-11-09T17:07:58.509Z,12.60
2022-11-09T17:10:25.234Z,12.50
2022-11-09T17:12:52.036Z,12.50
2022-11-09T17:15:20.105Z,12.50
2022-11-09T17:17:47.131Z,12.50
2022-11-09T17:20:13.926Z,12.50
2022-11-09T17:22:45.900Z,12.50
2022-11-09T17:25:16.152Z,12.50
2022-11-09T17:27:42.923Z,12.40
2022-11-09T17:30:10.726Z,12.40
2022-11-09T17:32:38.125Z,12.40
2022-11-09T17:35:05.125Z,12.30
2022-11-09T17:37:33.669Z,12.30
2022-11-09T17:40:00.652Z,12.30
2022-11-09T17:42:27.592Z,12.20
2022-11-09T17:44:54.288Z,12.20
2022-11-09T17:47:20.961Z,12.20
2022-11-09T17:49:47.736Z,12.20
2022-11-09T17:52:14.515Z,12.10
2022-11-09T17:54:41.213Z,12.30
2022-11-09T17:57:08.043Z,12.10
2022-11-09T17:59:34.709Z,12.10
2022-11-09T18:02:01.691Z,12.10
2022-11-09T18:04:28.491Z,12.10
2022-11-09T18:06:55.333Z,12.10
2022-11-09T18:12:10.283Z,12.00
2022-11-09T18:14:37.048Z,12.00
2022-11-09T18:17:03.756Z,12.00
2022-11-09T18:19:30.561Z,12.00
2022-11-09T18:21:59.234Z,11.90
2022-11-09T18:24:30.172Z,11.90
2022-11-09T18:26:56.978Z,11.90
2022-11-09T18:29:23.745Z,11.80
2022-11-09T18:31:50.548Z,11.90
2022-11-09T18:34:17.378Z,11.90
2022-11-09T18:36:44.309Z,11.90
2022-11-09T18:39:11.028Z,11.90
2022-11-09T18:41:37.780Z,11.90
2022-11-09T18:44:05.986Z,11.90
2022-11-09T18:46:33.912Z,11.90
2022-11-09T18:49:00.751Z,11.90
2022-11-09T18:51:28.045Z,11.80
2022-11-09T18:53:54.808Z,11.80
2022-11-09T18:56:24.067Z,11.80
2022-11-09T18:58:52.994Z,11.80
2022-11-09T19:01:20.428Z,11.80
2022-11-09T19:03:47.360Z,11.80
2022-11-09T19:06:15.611Z,11.80
2022-11-09T19:09:00.975Z,11.80
2022-11-09T19:11:30.530Z,11.80
2022-11-09T19:13:57.510Z,11.80
2022-11-09T19:16:28.564Z,11.80
2022-11-09T19:18:55.332Z,11.80
2022-11-09T19:21:25.248Z,11.80
2022-11-09T19:23:52.113Z,11.80
2022-11-09T19:26:19.304Z,11.80
2022-11-09T19:28:46.062Z,11.80
2022-11-09T19:31:16.918Z,11.80
2022-11-09T19:33:44.037Z,11.80
2022-11-09T19:38:57.806Z,11.80
2022-11-09T19:41:25.302Z,11.80
2022-11-09T19:43:54.443Z,11.80
2022-11-09T19:46:21.677Z,11.70
2022-11-09T19:48:48.383Z,11.70
2022-11-09T19:51:15.675Z,11.70
2022-11-09T19:53:42.896Z,11.70
2022-11-09T19:56:11.530Z,11.70
2022-11-09T19:58:38.290Z,11.70
2022-11-09T20:01:08.736Z,11.70
2022-11-09T20:03:35.789Z,11.70
2022-11-09T20:06:04.280Z,11.60
2022-11-09T20:08:35.968Z,11.60
2022-11-09T20:11:07.308Z,11.60
2022-11-09T20:13:34.306Z,11.60
2022-11-09T20:16:09.070Z,11.50
2022-11-09T20:18:39.270Z,11.50
2022-11-09T20:21:09.015Z,11.50
2022-11-09T20:23:35.751Z,11.60
2022-11-09T20:26:06.352Z,11.50
2022-11-09T20:28:33.141Z,11.50
2022-11-09T20:30:59.865Z,11.50
2022-11-09T20:33:26.635Z,11.50
2022-11-09T20:35:56.820Z,11.50
2022-11-09T20:38:23.918Z,11.50
2022-11-09T20:41:03.195Z,11.50
2022-11-09T20:43:30.089Z,11.50
2022-11-09T20:46:03.498Z,11.50
2022-11-09T20:48:52.635Z,11.40
2022-11-09T20:51:18.456Z,11.40
2022-11-09T20:53:45.946Z,11.40
2022-11-09T20:56:13.681Z,11.40
2022-11-09T20:58:40.488Z,11.30
2022-11-09T21:01:17.898Z,11.40
2022-11-09T21:03:44.867Z,11.40
2022-11-09T21:06:12.312Z,11.50
2022-11-09T21:08:39.138Z,11.40
2022-11-09T21:11:06.839Z,11.30
2022-11-09T21:13:33.661Z,11.40
2022-11-09T21:16:07.464Z,11.40
2022-11-09T21:18:34.370Z,11.30
2022-11-09T21:21:08.531Z,11.30
2022-11-09T21:23:54.818Z,11.30
2022-11-09T21:26:40.516Z,11.20
2022-11-09T21:29:28.919Z,11.20
2022-11-09T21:31:55.724Z,11.20
2022-11-09T21:34:22.608Z,11.20
2022-11-09T21:36:51.072Z,11.20
2022-11-09T21:39:17.867Z,11.20
2022-11-09T21:41:44.592Z,11.10
2022-11-09T21:44:11.673Z,11.10
2022-11-09T21:46:39.109Z,11.10
2022-11-09T21:49:06.716Z,11.20
2022-11-09T21:51:34.198Z,11.20
2022-11-09T21:54:01.002Z,11.20
2022-11-09T21:56:27.863Z,11.20
2022-11-09T21:58:54.731Z,11.30
2022-11-09T22:01:21.686Z,11.30
2022-11-09T22:03:48.567Z,11.30
2022-11-09T22:06:15.595Z,11.30
2022-11-09T22:08:42.458Z,11.40
2022-11-09T22:11:16.709Z,11.30
2022-11-09T22:14:01.824Z,11.40
2022-11-09T22:16:30.998Z,11.30
2022-11-09T22:19:16.294Z,11.30
2022-11-09T22:21:43.061Z,11.30
2022-11-09T22:24:09.983Z,11.30
2022-11-09T22:26:36.812Z,11.20
2022-11-09T22:29:04.870Z,11.20
2022-11-09T22:31:31.640Z,11.10
2022-11-09T22:33:58.299Z,11.10
2022-11-09T22:36:25.049Z,11.00
2022-11-09T22:38:51.775Z,11.00
2022-11-09T22:41:18.566Z,10.90
2022-11-09T22:43:45.522Z,10.90
2022-11-09T22:46:14.018Z,10.90
2022-11-09T22:48:41.599Z,10.80
2022-11-09T22:51:08.699Z,10.80
2022-11-09T22:53:35.402Z,10.80
2022-11-09T22:56:04.315Z,10.80
2022-11-09T22:58:31.311Z,10.80
2022-11-09T23:01:24.500Z,10.70
2022-11-09T23:03:51.785Z,10.70
2022-11-09T23:06:19.942Z,10.70
2022-11-09T23:08:46.863Z,10.70
2022-11-09T23:11:16.757Z,10.70
2022-11-09T23:13:43.919Z,10.70
2022-11-09T23:16:11.448Z,10.60
2022-11-09T23:18:53.768Z,10.60
2022-11-09T23:21:21.594Z,10.60
2022-11-09T23:23:48.504Z,10.60
2022-11-09T23:26:15.421Z,10.50
2022-11-09T23:28:42.247Z,10.60
2022-11-09T23:31:11.154Z,10.50
2022-11-09T23:33:37.875Z,10.50
2022-11-09T23:36:05.359Z,10.50
2022-11-09T23:38:33.676Z,10.50
2022-11-09T23:41:04.816Z,10.50
2022-11-09T23:43:31.626Z,10.50
2022-11-09T23:46:04.906Z,10.50
2022-11-09T23:48:31.641Z,10.50
2022-11-09T23:50:59.015Z,10.50
2022-11-09T23:53:26.817Z,10.50
2022-11-09T23:55:54.969Z,10.50
2022-11-09T23:58:21.819Z,10.50
